Terminal Aerodrome Forecast
Issued by NWS

Home | Current Version | Previous Version | Graphics & Text | Print | Product List | Glossary On
Versions: 1 2 3 4 5 6 7 8 9 10 11 12 13 14 15 16 17 18
683
FTUS43 KBIS 271354 AAA
TAFDIK
TAF AMD
KDIK 271354Z 2714/2812 27014G22KT P6SM SKC
     FM271700 29018G29KT P6SM BKN090
     FM272300 31016G26KT P6SM VCSH SCT110
     FM280300 31007KT P6SM SCT250
     FM280600 28007KT P6SM SKC=

USA.gov is the U.S. government's official web portal to all federal, state and local government web resources and services.